sensor_id;sensor_type;location;lat;lon;timestamp;P1;durP1;ratioP1;P2;durP2;ratioP2
16775;SDS011;8505;49.456;8.164;2023-07-31T00:01:57;6.70;;;1.92;;
16775;SDS011;8505;49.456;8.164;2023-07-31T00:04:25;8.13;;;2.03;;
16775;SDS011;8505;49.456;8.164;2023-07-31T00:06:53;7.18;;;2.10;;
16775;SDS011;8505;49.456;8.164;2023-07-31T00:09:20;8.10;;;2.13;;
16775;SDS011;8505;49.456;8.164;2023-07-31T00:11:48;7.85;;;2.00;;
16775;SDS011;8505;49.456;8.164;2023-07-31T00:14:16;9.10;;;2.10;;
16775;SDS011;8505;49.456;8.164;2023-07-31T00:16:44;6.38;;;2.05;;
16775;SDS011;8505;49.456;8.164;2023-07-31T00:19:13;6.60;;;2.10;;
16775;SDS011;8505;49.456;8.164;2023-07-31T00:21:41;5.40;;;1.90;;
16775;SDS011;8505;49.456;8.164;2023-07-31T00:24:09;7.45;;;2.33;;
16775;SDS011;8505;49.456;8.164;2023-07-31T00:26:36;7.32;;;2.05;;
16775;SDS011;8505;49.456;8.164;2023-07-31T00:29:04;7.03;;;2.10;;
16775;SDS011;8505;49.456;8.164;2023-07-31T00:31:32;5.32;;;2.17;;
16775;SDS011;8505;49.456;8.164;2023-07-31T00:34:00;6.95;;;2.10;;
16775;SDS011;8505;49.456;8.164;2023-07-31T00:36:29;5.55;;;2.20;;
16775;SDS011;8505;49.456;8.164;2023-07-31T00:38:57;5.70;;;2.00;;
16775;SDS011;8505;49.456;8.164;2023-07-31T00:41:25;7.35;;;2.20;;
16775;SDS011;8505;49.456;8.164;2023-07-31T00:43:53;6.97;;;2.20;;
16775;SDS011;8505;49.456;8.164;2023-07-31T00:46:21;6.10;;;2.30;;
16775;SDS011;8505;49.456;8.164;2023-07-31T00:48:49;5.70;;;2.10;;
16775;SDS011;8505;49.456;8.164;2023-07-31T00:51:17;8.87;;;2.27;;
16775;SDS011;8505;49.456;8.164;2023-07-31T00:53:46;5.78;;;2.10;;
16775;SDS011;8505;49.456;8.164;2023-07-31T00:56:14;9.23;;;2.40;;
16775;SDS011;8505;49.456;8.164;2023-07-31T00:58:43;7.85;;;2.70;;
16775;SDS011;8505;49.456;8.164;2023-07-31T01:01:11;6.60;;;2.37;;
16775;SDS011;8505;49.456;8.164;2023-07-31T01:03:38;7.68;;;2.33;;
16775;SDS011;8505;49.456;8.164;2023-07-31T01:06:09;7.35;;;2.38;;
16775;SDS011;8505;49.456;8.164;2023-07-31T01:08:44;6.43;;;2.30;;
16775;SDS011;8505;49.456;8.164;2023-07-31T01:11:21;7.25;;;2.70;;
16775;SDS011;8505;49.456;8.164;2023-07-31T01:13:54;8.90;;;2.25;;
16775;SDS011;8505;49.456;8.164;2023-07-31T01:16:22;8.20;;;2.50;;
16775;SDS011;8505;49.456;8.164;2023-07-31T01:18:50;8.07;;;2.63;;
16775;SDS011;8505;49.456;8.164;2023-07-31T01:21:21;9.15;;;2.75;;
16775;SDS011;8505;49.456;8.164;2023-07-31T01:24:18;6.93;;;2.53;;
16775;SDS011;8505;49.456;8.164;2023-07-31T01:26:53;6.38;;;2.30;;
16775;SDS011;8505;49.456;8.164;2023-07-31T01:29:38;8.15;;;2.65;;
16775;SDS011;8505;49.456;8.164;2023-07-31T01:32:14;7.40;;;2.58;;
16775;SDS011;8505;49.456;8.164;2023-07-31T01:34:45;8.95;;;2.60;;
16775;SDS011;8505;49.456;8.164;2023-07-31T01:37:13;6.20;;;2.40;;
16775;SDS011;8505;49.456;8.164;2023-07-31T01:39:41;7.80;;;2.70;;
16775;SDS011;8505;49.456;8.164;2023-07-31T01:42:10;10.00;;;2.45;;
16775;SDS011;8505;49.456;8.164;2023-07-31T01:44:38;8.23;;;2.60;;
16775;SDS011;8505;49.456;8.164;2023-07-31T01:47:06;9.00;;;2.70;;
16775;SDS011;8505;49.456;8.164;2023-07-31T01:49:33;8.43;;;2.50;;
16775;SDS011;8505;49.456;8.164;2023-07-31T01:52:01;7.18;;;2.42;;
16775;SDS011;8505;49.456;8.164;2023-07-31T01:54:56;8.07;;;2.45;;
16775;SDS011;8505;49.456;8.164;2023-07-31T01:57:25;7.07;;;2.40;;
16775;SDS011;8505;49.456;8.164;2023-07-31T01:59:53;6.85;;;2.55;;
16775;SDS011;8505;49.456;8.164;2023-07-31T02:02:21;7.25;;;2.67;;
16775;SDS011;8505;49.456;8.164;2023-07-31T02:04:49;6.82;;;2.55;;
16775;SDS011;8505;49.456;8.164;2023-07-31T02:07:16;8.13;;;2.78;;
16775;SDS011;8505;49.456;8.164;2023-07-31T02:09:44;7.93;;;2.55;;
16775;SDS011;8505;49.456;8.164;2023-07-31T02:12:13;7.55;;;2.67;;
16775;SDS011;8505;49.456;8.164;2023-07-31T02:14:42;10.18;;;2.80;;
16775;SDS011;8505;49.456;8.164;2023-07-31T02:17:10;7.80;;;2.53;;
16775;SDS011;8505;49.456;8.164;2023-07-31T02:19:38;8.30;;;2.88;;
16775;SDS011;8505;49.456;8.164;2023-07-31T02:22:05;7.85;;;2.58;;
16775;SDS011;8505;49.456;8.164;2023-07-31T02:24:33;5.43;;;2.38;;
16775;SDS011;8505;49.456;8.164;2023-07-31T02:27:00;6.07;;;2.40;;
16775;SDS011;8505;49.456;8.164;2023-07-31T02:29:28;8.20;;;2.50;;
16775;SDS011;8505;49.456;8.164;2023-07-31T02:31:57;8.35;;;2.63;;
16775;SDS011;8505;49.456;8.164;2023-07-31T02:34:25;8.70;;;2.60;;
16775;SDS011;8505;49.456;8.164;2023-07-31T02:36:53;7.68;;;2.65;;
16775;SDS011;8505;49.456;8.164;2023-07-31T02:39:21;8.05;;;2.60;;
16775;SDS011;8505;49.456;8.164;2023-07-31T02:41:49;7.65;;;2.50;;
16775;SDS011;8505;49.456;8.164;2023-07-31T02:44:16;8.20;;;2.63;;
16775;SDS011;8505;49.456;8.164;2023-07-31T02:46:44;7.57;;;2.67;;
16775;SDS011;8505;49.456;8.164;2023-07-31T02:49:13;8.15;;;2.63;;
16775;SDS011;8505;49.456;8.164;2023-07-31T02:51:41;7.55;;;2.58;;
16775;SDS011;8505;49.456;8.164;2023-07-31T02:54:09;7.40;;;2.30;;
16775;SDS011;8505;49.456;8.164;2023-07-31T02:56:36;9.70;;;2.60;;
16775;SDS011;8505;49.456;8.164;2023-07-31T02:59:05;8.20;;;2.38;;
16775;SDS011;8505;49.456;8.164;2023-07-31T03:01:32;7.57;;;2.53;;
16775;SDS011;8505;49.456;8.164;2023-07-31T03:04:00;6.38;;;2.40;;
16775;SDS011;8505;49.456;8.164;2023-07-31T03:06:29;7.10;;;2.65;;
16775;SDS011;8505;49.456;8.164;2023-07-31T03:08:57;6.88;;;2.58;;
16775;SDS011;8505;49.456;8.164;2023-07-31T03:11:24;6.47;;;2.60;;
16775;SDS011;8505;49.456;8.164;2023-07-31T03:13:52;8.23;;;2.90;;
16775;SDS011;8505;49.456;8.164;2023-07-31T03:16:20;6.83;;;2.50;;
16775;SDS011;8505;49.456;8.164;2023-07-31T03:18:48;7.07;;;2.60;;
16775;SDS011;8505;49.456;8.164;2023-07-31T03:21:16;6.95;;;2.50;;
16775;SDS011;8505;49.456;8.164;2023-07-31T03:23:45;6.32;;;2.70;;
16775;SDS011;8505;49.456;8.164;2023-07-31T03:26:13;7.55;;;2.70;;
16775;SDS011;8505;49.456;8.164;2023-07-31T03:28:40;8.55;;;2.80;;
16775;SDS011;8505;49.456;8.164;2023-07-31T03:31:08;7.85;;;2.53;;
16775;SDS011;8505;49.456;8.164;2023-07-31T03:33:36;6.93;;;2.60;;
16775;SDS011;8505;49.456;8.164;2023-07-31T03:36:04;7.90;;;2.63;;
16775;SDS011;8505;49.456;8.164;2023-07-31T03:38:32;8.43;;;2.60;;
16775;SDS011;8505;49.456;8.164;2023-07-31T03:41:01;9.45;;;2.75;;
16775;SDS011;8505;49.456;8.164;2023-07-31T03:43:29;8.82;;;2.80;;
16775;SDS011;8505;49.456;8.164;2023-07-31T03:45:57;6.65;;;2.60;;
16775;SDS011;8505;49.456;8.164;2023-07-31T03:48:24;7.00;;;2.60;;
16775;SDS011;8505;49.456;8.164;2023-07-31T03:50:52;6.77;;;2.43;;
16775;SDS011;8505;49.456;8.164;2023-07-31T03:53:20;7.53;;;2.78;;
16775;SDS011;8505;49.456;8.164;2023-07-31T03:55:47;8.75;;;2.70;;
16775;SDS011;8505;49.456;8.164;2023-07-31T03:58:16;6.32;;;2.58;;
16775;SDS011;8505;49.456;8.164;2023-07-31T04:00:45;8.05;;;2.53;;
16775;SDS011;8505;49.456;8.164;2023-07-31T04:03:13;8.05;;;2.65;;
16775;SDS011;8505;49.456;8.164;2023-07-31T04:05:41;9.25;;;2.60;;
16775;SDS011;8505;49.456;8.164;2023-07-31T04:08:09;7.15;;;2.60;;
16775;SDS011;8505;49.456;8.164;2023-07-31T04:10:37;6.22;;;2.47;;
16775;SDS011;8505;49.456;8.164;2023-07-31T04:13:04;8.27;;;2.70;;
16775;SDS011;8505;49.456;8.164;2023-07-31T04:15:33;8.25;;;2.60;;
16775;SDS011;8505;49.456;8.164;2023-07-31T04:18:01;6.88;;;2.60;;
16775;SDS011;8505;49.456;8.164;2023-07-31T04:20:29;7.13;;;2.53;;
16775;SDS011;8505;49.456;8.164;2023-07-31T04:22:57;8.70;;;2.70;;
16775;SDS011;8505;49.456;8.164;2023-07-31T04:25:25;7.82;;;2.60;;
16775;SDS011;8505;49.456;8.164;2023-07-31T04:27:52;7.33;;;2.40;;
16775;SDS011;8505;49.456;8.164;2023-07-31T04:30:20;8.07;;;2.60;;
16775;SDS011;8505;49.456;8.164;2023-07-31T04:32:49;7.45;;;2.65;;
16775;SDS011;8505;49.456;8.164;2023-07-31T04:35:17;7.32;;;2.80;;
16775;SDS011;8505;49.456;8.164;2023-07-31T04:37:44;8.32;;;2.80;;
16775;SDS011;8505;49.456;8.164;2023-07-31T04:40:15;8.45;;;2.92;;
16775;SDS011;8505;49.456;8.164;2023-07-31T04:42:43;9.02;;;2.88;;
16775;SDS011;8505;49.456;8.164;2023-07-31T04:45:10;8.05;;;2.60;;
16775;SDS011;8505;49.456;8.164;2023-07-31T04:47:38;7.65;;;2.70;;
16775;SDS011;8505;49.456;8.164;2023-07-31T04:50:08;8.20;;;2.60;;
16775;SDS011;8505;49.456;8.164;2023-07-31T04:52:36;7.93;;;2.55;;
16775;SDS011;8505;49.456;8.164;2023-07-31T04:55:04;5.78;;;2.50;;
16775;SDS011;8505;49.456;8.164;2023-07-31T04:57:32;7.68;;;2.55;;
16775;SDS011;8505;49.456;8.164;2023-07-31T05:00:00;7.45;;;2.58;;
16775;SDS011;8505;49.456;8.164;2023-07-31T05:02:27;7.50;;;2.40;;
16775;SDS011;8505;49.456;8.164;2023-07-31T05:04:55;8.93;;;2.67;;
16775;SDS011;8505;49.456;8.164;2023-07-31T05:07:25;6.22;;;2.40;;
16775;SDS011;8505;49.456;8.164;2023-07-31T05:09:52;6.28;;;2.33;;
16775;SDS011;8505;49.456;8.164;2023-07-31T05:12:23;8.65;;;3.13;;
16775;SDS011;8505;49.456;8.164;2023-07-31T05:14:51;6.20;;;2.47;;
16775;SDS011;8505;49.456;8.164;2023-07-31T05:17:19;8.60;;;2.60;;
16775;SDS011;8505;49.456;8.164;2023-07-31T05:19:46;8.15;;;2.50;;
16775;SDS011;8505;49.456;8.164;2023-07-31T05:22:14;6.35;;;2.33;;
16775;SDS011;8505;49.456;8.164;2023-07-31T05:24:43;7.55;;;2.60;;
16775;SDS011;8505;49.456;8.164;2023-07-31T05:27:10;6.80;;;2.50;;
16775;SDS011;8505;49.456;8.164;2023-07-31T05:29:39;6.38;;;2.30;;
16775;SDS011;8505;49.456;8.164;2023-07-31T05:32:08;8.00;;;2.45;;
16775;SDS011;8505;49.456;8.164;2023-07-31T05:34:36;8.90;;;2.50;;
16775;SDS011;8505;49.456;8.164;2023-07-31T05:37:04;7.50;;;2.53;;
16775;SDS011;8505;49.456;8.164;2023-07-31T05:39:32;8.60;;;2.63;;
16775;SDS011;8505;49.456;8.164;2023-07-31T05:42:01;7.75;;;2.22;;
16775;SDS011;8505;49.456;8.164;2023-07-31T05:44:29;9.45;;;2.60;;
16775;SDS011;8505;49.456;8.164;2023-07-31T05:46:56;7.85;;;2.40;;
16775;SDS011;8505;49.456;8.164;2023-07-31T05:49:24;7.15;;;2.22;;
16775;SDS011;8505;49.456;8.164;2023-07-31T05:51:52;7.50;;;2.40;;
16775;SDS011;8505;49.456;8.164;2023-07-31T05:54:20;5.82;;;2.38;;
16775;SDS011;8505;49.456;8.164;2023-07-31T05:56:47;7.67;;;2.40;;
16775;SDS011;8505;49.456;8.164;2023-07-31T05:59:16;5.72;;;2.38;;
16775;SDS011;8505;49.456;8.164;2023-07-31T06:01:44;6.93;;;2.20;;
16775;SDS011;8505;49.456;8.164;2023-07-31T06:04:12;6.82;;;2.22;;
16775;SDS011;8505;49.456;8.164;2023-07-31T06:06:40;7.50;;;2.58;;
16775;SDS011;8505;49.456;8.164;2023-07-31T06:09:08;7.03;;;2.40;;
16775;SDS011;8505;49.456;8.164;2023-07-31T06:11:35;6.47;;;2.25;;
16775;SDS011;8505;49.456;8.164;2023-07-31T06:14:03;7.35;;;2.20;;
16775;SDS011;8505;49.456;8.164;2023-07-31T06:16:32;7.03;;;2.40;;
16775;SDS011;8505;49.456;8.164;2023-07-31T06:19:00;7.05;;;2.42;;
16775;SDS011;8505;49.456;8.164;2023-07-31T06:21:28;6.70;;;2.40;;
16775;SDS011;8505;49.456;8.164;2023-07-31T06:23:56;6.13;;;2.25;;
16775;SDS011;8505;49.456;8.164;2023-07-31T06:26:24;7.85;;;2.75;;
16775;SDS011;8505;49.456;8.164;2023-07-31T06:28:51;7.45;;;2.50;;
16775;SDS011;8505;49.456;8.164;2023-07-31T06:31:19;8.97;;;2.40;;
16775;SDS011;8505;49.456;8.164;2023-07-31T06:33:50;6.30;;;2.47;;
16775;SDS011;8505;49.456;8.164;2023-07-31T06:36:18;5.85;;;2.30;;
16775;SDS011;8505;49.456;8.164;2023-07-31T06:38:46;7.70;;;2.50;;
16775;SDS011;8505;49.456;8.164;2023-07-31T06:41:14;7.38;;;2.30;;
16775;SDS011;8505;49.456;8.164;2023-07-31T06:43:41;6.35;;;2.38;;
16775;SDS011;8505;49.456;8.164;2023-07-31T06:46:09;6.57;;;2.50;;
16775;SDS011;8505;49.456;8.164;2023-07-31T06:48:37;6.43;;;2.47;;
16775;SDS011;8505;49.456;8.164;2023-07-31T06:51:07;6.10;;;2.42;;
16775;SDS011;8505;49.456;8.164;2023-07-31T06:53:34;6.40;;;2.33;;
16775;SDS011;8505;49.456;8.164;2023-07-31T06:56:02;6.60;;;2.33;;
16775;SDS011;8505;49.456;8.164;2023-07-31T06:58:30;6.35;;;2.30;;
16775;SDS011;8505;49.456;8.164;2023-07-31T07:00:58;5.43;;;2.50;;
16775;SDS011;8505;49.456;8.164;2023-07-31T07:03:26;6.25;;;2.40;;
16775;SDS011;8505;49.456;8.164;2023-07-31T07:05:54;6.28;;;2.30;;
16775;SDS011;8505;49.456;8.164;2023-07-31T07:08:23;5.18;;;2.10;;
16775;SDS011;8505;49.456;8.164;2023-07-31T07:10:52;7.90;;;2.70;;
16775;SDS011;8505;49.456;8.164;2023-07-31T07:13:20;6.30;;;2.10;;
16775;SDS011;8505;49.456;8.164;2023-07-31T07:15:48;5.53;;;2.33;;
16775;SDS011;8505;49.456;8.164;2023-07-31T07:18:17;5.70;;;2.20;;
16775;SDS011;8505;49.456;8.164;2023-07-31T07:20:49;6.78;;;2.17;;
16775;SDS011;8505;49.456;8.164;2023-07-31T07:23:18;5.50;;;2.15;;
16775;SDS011;8505;49.456;8.164;2023-07-31T07:25:48;6.43;;;2.22;;
16775;SDS011;8505;49.456;8.164;2023-07-31T07:28:17;5.28;;;2.22;;
16775;SDS011;8505;49.456;8.164;2023-07-31T07:30:45;7.43;;;2.30;;
16775;SDS011;8505;49.456;8.164;2023-07-31T07:33:18;6.30;;;2.30;;
16775;SDS011;8505;49.456;8.164;2023-07-31T07:35:45;5.07;;;2.27;;
16775;SDS011;8505;49.456;8.164;2023-07-31T07:38:13;6.07;;;2.60;;
16775;SDS011;8505;49.456;8.164;2023-07-31T07:40:41;7.30;;;2.30;;
16775;SDS011;8505;49.456;8.164;2023-07-31T07:43:10;4.90;;;2.08;;
16775;SDS011;8505;49.456;8.164;2023-07-31T07:45:38;6.18;;;2.20;;
16775;SDS011;8505;49.456;8.164;2023-07-31T07:48:06;5.97;;;2.43;;
16775;SDS011;8505;49.456;8.164;2023-07-31T07:50:34;6.03;;;2.40;;
16775;SDS011;8505;49.456;8.164;2023-07-31T07:53:03;5.93;;;2.15;;
16775;SDS011;8505;49.456;8.164;2023-07-31T07:55:31;6.23;;;2.30;;
16775;SDS011;8505;49.456;8.164;2023-07-31T07:57:58;6.38;;;2.38;;
16775;SDS011;8505;49.456;8.164;2023-07-31T08:00:28;5.90;;;2.03;;
16775;SDS011;8505;49.456;8.164;2023-07-31T08:02:56;7.00;;;2.50;;
16775;SDS011;8505;49.456;8.164;2023-07-31T08:05:24;8.52;;;2.65;;
16775;SDS011;8505;49.456;8.164;2023-07-31T08:07:52;6.53;;;2.28;;
16775;SDS011;8505;49.456;8.164;2023-07-31T08:10:20;9.00;;;2.70;;
16775;SDS011;8505;49.456;8.164;2023-07-31T08:12:47;5.20;;;2.20;;
16775;SDS011;8505;49.456;8.164;2023-07-31T08:15:15;6.03;;;2.40;;
16775;SDS011;8505;49.456;8.164;2023-07-31T08:17:44;6.07;;;2.70;;
16775;SDS011;8505;49.456;8.164;2023-07-31T08:20:12;7.78;;;2.47;;
16775;SDS011;8505;49.456;8.164;2023-07-31T08:22:40;7.03;;;2.30;;
16775;SDS011;8505;49.456;8.164;2023-07-31T08:25:08;6.07;;;2.40;;
16775;SDS011;8505;49.456;8.164;2023-07-31T08:27:36;5.60;;;2.30;;
16775;SDS011;8505;49.456;8.164;2023-07-31T08:30:04;6.20;;;2.40;;
16775;SDS011;8505;49.456;8.164;2023-07-31T08:32:33;6.18;;;2.33;;
16775;SDS011;8505;49.456;8.164;2023-07-31T08:35:02;6.28;;;2.42;;
16775;SDS011;8505;49.456;8.164;2023-07-31T08:37:30;7.60;;;2.60;;
16775;SDS011;8505;49.456;8.164;2023-07-31T08:39:58;7.05;;;2.53;;
16775;SDS011;8505;49.456;8.164;2023-07-31T08:42:25;6.43;;;2.60;;
16775;SDS011;8505;49.456;8.164;2023-07-31T08:44:56;8.02;;;2.72;;
16775;SDS011;8505;49.456;8.164;2023-07-31T08:47:26;6.88;;;2.70;;
16775;SDS011;8505;49.456;8.164;2023-07-31T08:49:55;7.55;;;2.63;;
16775;SDS011;8505;49.456;8.164;2023-07-31T08:52:25;6.15;;;2.28;;
16775;SDS011;8505;49.456;8.164;2023-07-31T08:54:53;6.95;;;2.65;;
16775;SDS011;8505;49.456;8.164;2023-07-31T08:57:21;5.65;;;2.33;;
16775;SDS011;8505;49.456;8.164;2023-07-31T08:59:50;6.80;;;2.42;;
16775;SDS011;8505;49.456;8.164;2023-07-31T09:02:19;6.05;;;2.35;;
16775;SDS011;8505;49.456;8.164;2023-07-31T09:04:48;8.25;;;2.80;;
16775;SDS011;8505;49.456;8.164;2023-07-31T09:07:16;5.68;;;2.33;;
16775;SDS011;8505;49.456;8.164;2023-07-31T09:09:45;8.15;;;2.53;;
16775;SDS011;8505;49.456;8.164;2023-07-31T09:12:13;6.03;;;2.45;;
16775;SDS011;8505;49.456;8.164;2023-07-31T09:14:41;5.88;;;2.38;;
16775;SDS011;8505;49.456;8.164;2023-07-31T09:17:12;6.45;;;2.58;;
16775;SDS011;8505;49.456;8.164;2023-07-31T09:19:40;6.00;;;2.40;;
16775;SDS011;8505;49.456;8.164;2023-07-31T09:22:08;8.05;;;2.50;;
16775;SDS011;8505;49.456;8.164;2023-07-31T09:24:36;7.93;;;2.53;;
16775;SDS011;8505;49.456;8.164;2023-07-31T09:27:05;5.43;;;2.70;;
16775;SDS011;8505;49.456;8.164;2023-07-31T09:29:33;7.30;;;2.63;;
16775;SDS011;8505;49.456;8.164;2023-07-31T09:32:00;6.37;;;2.30;;
16775;SDS011;8505;49.456;8.164;2023-07-31T09:34:29;6.82;;;2.88;;
16775;SDS011;8505;49.456;8.164;2023-07-31T09:36:59;7.70;;;2.75;;
16775;SDS011;8505;49.456;8.164;2023-07-31T09:39:29;7.57;;;2.70;;
16775;SDS011;8505;49.456;8.164;2023-07-31T09:41:57;7.97;;;2.50;;
16775;SDS011;8505;49.456;8.164;2023-07-31T09:44:38;7.45;;;2.88;;
16775;SDS011;8505;49.456;8.164;2023-07-31T09:47:20;6.70;;;2.60;;
16775;SDS011;8505;49.456;8.164;2023-07-31T09:49:50;7.30;;;2.70;;
16775;SDS011;8505;49.456;8.164;2023-07-31T09:52:18;7.20;;;2.90;;
16775;SDS011;8505;49.456;8.164;2023-07-31T09:54:45;9.37;;;2.97;;
16775;SDS011;8505;49.456;8.164;2023-07-31T09:57:13;9.48;;;3.10;;
16775;SDS011;8505;49.456;8.164;2023-07-31T09:59:45;8.37;;;2.90;;
16775;SDS011;8505;49.456;8.164;2023-07-31T10:02:15;8.20;;;2.92;;
16775;SDS011;8505;49.456;8.164;2023-07-31T10:04:48;6.95;;;2.70;;
16775;SDS011;8505;49.456;8.164;2023-07-31T10:07:17;7.90;;;2.80;;
16775;SDS011;8505;49.456;8.164;2023-07-31T10:09:46;8.30;;;2.83;;
16775;SDS011;8505;49.456;8.164;2023-07-31T10:12:14;6.63;;;2.83;;
16775;SDS011;8505;49.456;8.164;2023-07-31T10:14:47;8.20;;;2.92;;
16775;SDS011;8505;49.456;8.164;2023-07-31T10:17:15;6.70;;;2.90;;
16775;SDS011;8505;49.456;8.164;2023-07-31T10:19:45;7.78;;;3.08;;
16775;SDS011;8505;49.456;8.164;2023-07-31T10:22:14;7.82;;;3.15;;
16775;SDS011;8505;49.456;8.164;2023-07-31T10:24:42;8.48;;;2.95;;
16775;SDS011;8505;49.456;8.164;2023-07-31T10:27:10;7.30;;;2.80;;
16775;SDS011;8505;49.456;8.164;2023-07-31T10:29:38;7.00;;;3.10;;
16775;SDS011;8505;49.456;8.164;2023-07-31T10:32:08;7.28;;;2.95;;
16775;SDS011;8505;49.456;8.164;2023-07-31T10:34:38;5.97;;;2.80;;
16775;SDS011;8505;49.456;8.164;2023-07-31T10:37:20;7.75;;;2.85;;
16775;SDS011;8505;49.456;8.164;2023-07-31T10:39:56;7.47;;;2.97;;
16775;SDS011;8505;49.456;8.164;2023-07-31T10:42:32;6.13;;;2.80;;
16775;SDS011;8505;49.456;8.164;2023-07-31T10:45:02;6.28;;;2.70;;
16775;SDS011;8505;49.456;8.164;2023-07-31T10:47:37;6.70;;;2.55;;
16775;SDS011;8505;49.456;8.164;2023-07-31T10:50:10;7.22;;;2.63;;
16775;SDS011;8505;49.456;8.164;2023-07-31T10:52:38;6.55;;;2.80;;
16775;SDS011;8505;49.456;8.164;2023-07-31T10:55:13;5.82;;;2.53;;
16775;SDS011;8505;49.456;8.164;2023-07-31T10:57:52;6.17;;;2.90;;
16775;SDS011;8505;49.456;8.164;2023-07-31T11:00:21;7.70;;;2.78;;
16775;SDS011;8505;49.456;8.164;2023-07-31T11:02:58;6.72;;;2.90;;
16775;SDS011;8505;49.456;8.164;2023-07-31T11:08:16;6.10;;;2.30;;
16775;SDS011;8505;49.456;8.164;2023-07-31T11:10:49;7.53;;;2.93;;
16775;SDS011;8505;49.456;8.164;2023-07-31T11:13:18;8.00;;;2.80;;
16775;SDS011;8505;49.456;8.164;2023-07-31T11:15:45;6.22;;;2.70;;
16775;SDS011;8505;49.456;8.164;2023-07-31T11:18:14;6.28;;;2.70;;
16775;SDS011;8505;49.456;8.164;2023-07-31T11:20:43;5.93;;;2.58;;
16775;SDS011;8505;49.456;8.164;2023-07-31T11:23:11;6.95;;;2.80;;
16775;SDS011;8505;49.456;8.164;2023-07-31T11:25:39;6.95;;;2.75;;
16775;SDS011;8505;49.456;8.164;2023-07-31T11:28:08;6.93;;;2.60;;
16775;SDS011;8505;49.456;8.164;2023-07-31T11:30:37;5.72;;;2.50;;
16775;SDS011;8505;49.456;8.164;2023-07-31T11:33:06;6.47;;;2.63;;
16775;SDS011;8505;49.456;8.164;2023-07-31T11:35:40;6.38;;;2.70;;
16775;SDS011;8505;49.456;8.164;2023-07-31T11:38:11;6.20;;;2.50;;
16775;SDS011;8505;49.456;8.164;2023-07-31T11:40:42;6.03;;;2.60;;
16775;SDS011;8505;49.456;8.164;2023-07-31T11:43:10;5.90;;;2.60;;
16775;SDS011;8505;49.456;8.164;2023-07-31T11:45:46;6.45;;;2.90;;
16775;SDS011;8505;49.456;8.164;2023-07-31T11:48:20;6.60;;;2.55;;
16775;SDS011;8505;49.456;8.164;2023-07-31T11:50:51;7.78;;;2.88;;
16775;SDS011;8505;49.456;8.164;2023-07-31T11:53:20;6.20;;;2.60;;
16775;SDS011;8505;49.456;8.164;2023-07-31T11:55:52;6.15;;;2.58;;
16775;SDS011;8505;49.456;8.164;2023-07-31T11:58:21;7.33;;;2.80;;
16775;SDS011;8505;49.456;8.164;2023-07-31T12:00:49;6.97;;;2.80;;
16775;SDS011;8505;49.456;8.164;2023-07-31T12:03:17;8.05;;;2.97;;
16775;SDS011;8505;49.456;8.164;2023-07-31T12:05:46;6.63;;;2.73;;
16775;SDS011;8505;49.456;8.164;2023-07-31T12:08:16;6.90;;;2.88;;
16775;SDS011;8505;49.456;8.164;2023-07-31T12:10:44;6.63;;;2.60;;
16775;SDS011;8505;49.456;8.164;2023-07-31T12:13:20;6.32;;;2.85;;
16775;SDS011;8505;49.456;8.164;2023-07-31T12:15:48;6.50;;;2.63;;
16775;SDS011;8505;49.456;8.164;2023-07-31T12:18:18;6.70;;;2.92;;
16775;SDS011;8505;49.456;8.164;2023-07-31T12:20:48;7.80;;;2.80;;
16775;SDS011;8505;49.456;8.164;2023-07-31T12:23:19;6.63;;;2.60;;
16775;SDS011;8505;49.456;8.164;2023-07-31T12:25:59;4.55;;;2.30;;
16775;SDS011;8505;49.456;8.164;2023-07-31T12:28:28;6.80;;;2.58;;
16775;SDS011;8505;49.456;8.164;2023-07-31T12:30:56;5.10;;;2.35;;
16775;SDS011;8505;49.456;8.164;2023-07-31T12:33:29;5.50;;;2.30;;
16775;SDS011;8505;49.456;8.164;2023-07-31T12:36:00;5.43;;;2.60;;
16775;SDS011;8505;49.456;8.164;2023-07-31T12:38:29;6.40;;;2.55;;
16775;SDS011;8505;49.456;8.164;2023-07-31T12:40:57;5.45;;;2.30;;
16775;SDS011;8505;49.456;8.164;2023-07-31T12:43:25;6.67;;;2.33;;
16775;SDS011;8505;49.456;8.164;2023-07-31T12:45:53;5.72;;;2.50;;
16775;SDS011;8505;49.456;8.164;2023-07-31T12:48:22;7.50;;;2.70;;
16775;SDS011;8505;49.456;8.164;2023-07-31T12:50:50;6.57;;;2.55;;
16775;SDS011;8505;49.456;8.164;2023-07-31T12:53:18;6.90;;;2.90;;
16775;SDS011;8505;49.456;8.164;2023-07-31T12:55:47;5.05;;;2.55;;
16775;SDS011;8505;49.456;8.164;2023-07-31T12:58:14;5.90;;;2.65;;
16775;SDS011;8505;49.456;8.164;2023-07-31T13:00:42;6.97;;;2.78;;
16775;SDS011;8505;49.456;8.164;2023-07-31T13:03:10;6.90;;;2.70;;
16775;SDS011;8505;49.456;8.164;2023-07-31T13:05:38;8.02;;;2.60;;
16775;SDS011;8505;49.456;8.164;2023-07-31T13:08:06;6.25;;;2.50;;
16775;SDS011;8505;49.456;8.164;2023-07-31T13:10:33;6.82;;;2.42;;
16775;SDS011;8505;49.456;8.164;2023-07-31T13:13:02;6.67;;;2.50;;
16775;SDS011;8505;49.456;8.164;2023-07-31T13:15:30;5.43;;;2.60;;
16775;SDS011;8505;49.456;8.164;2023-07-31T13:17:58;7.82;;;2.90;;
16775;SDS011;8505;49.456;8.164;2023-07-31T13:20:26;6.82;;;2.60;;
16775;SDS011;8505;49.456;8.164;2023-07-31T13:22:54;5.97;;;2.45;;
16775;SDS011;8505;49.456;8.164;2023-07-31T13:25:21;5.38;;;2.60;;
16775;SDS011;8505;49.456;8.164;2023-07-31T13:27:49;6.07;;;2.60;;
16775;SDS011;8505;49.456;8.164;2023-07-31T13:30:18;8.20;;;2.53;;
16775;SDS011;8505;49.456;8.164;2023-07-31T13:32:46;6.90;;;2.63;;
16775;SDS011;8505;49.456;8.164;2023-07-31T13:35:14;7.78;;;2.75;;
16775;SDS011;8505;49.456;8.164;2023-07-31T13:37:41;7.03;;;3.00;;
16775;SDS011;8505;49.456;8.164;2023-07-31T13:40:09;7.88;;;2.85;;
16775;SDS011;8505;49.456;8.164;2023-07-31T13:42:38;7.00;;;2.80;;
16775;SDS011;8505;49.456;8.164;2023-07-31T13:45:06;5.47;;;2.73;;
16775;SDS011;8505;49.456;8.164;2023-07-31T13:47:35;6.57;;;2.70;;
16775;SDS011;8505;49.456;8.164;2023-07-31T13:50:04;6.07;;;2.88;;
16775;SDS011;8505;49.456;8.164;2023-07-31T13:52:32;6.38;;;2.90;;
16775;SDS011;8505;49.456;8.164;2023-07-31T13:54:59;6.68;;;2.88;;
16775;SDS011;8505;49.456;8.164;2023-07-31T13:57:27;5.20;;;2.40;;
16775;SDS011;8505;49.456;8.164;2023-07-31T13:59:55;7.47;;;2.95;;
16775;SDS011;8505;49.456;8.164;2023-07-31T14:02:23;7.45;;;2.78;;
16775;SDS011;8505;49.456;8.164;2023-07-31T14:04:52;6.70;;;2.85;;
16775;SDS011;8505;49.456;8.164;2023-07-31T14:07:20;7.68;;;2.85;;
16775;SDS011;8505;49.456;8.164;2023-07-31T14:09:47;5.95;;;2.60;;
16775;SDS011;8505;49.456;8.164;2023-07-31T14:12:15;6.30;;;2.70;;
16775;SDS011;8505;49.456;8.164;2023-07-31T14:15:03;5.18;;;2.50;;
16775;SDS011;8505;49.456;8.164;2023-07-31T14:17:31;4.65;;;2.47;;
16775;SDS011;8505;49.456;8.164;2023-07-31T14:20:00;5.97;;;2.42;;
16775;SDS011;8505;49.456;8.164;2023-07-31T14:22:29;7.18;;;2.40;;
16775;SDS011;8505;49.456;8.164;2023-07-31T14:24:59;5.88;;;2.63;;
16775;SDS011;8505;49.456;8.164;2023-07-31T14:27:27;6.07;;;2.33;;
16775;SDS011;8505;49.456;8.164;2023-07-31T14:29:55;5.43;;;2.55;;
16775;SDS011;8505;49.456;8.164;2023-07-31T14:32:22;7.97;;;2.60;;
16775;SDS011;8505;49.456;8.164;2023-07-31T14:34:52;6.70;;;2.72;;
16775;SDS011;8505;49.456;8.164;2023-07-31T14:37:22;7.67;;;3.23;;
16775;SDS011;8505;49.456;8.164;2023-07-31T14:39:49;8.23;;;2.75;;
16775;SDS011;8505;49.456;8.164;2023-07-31T14:42:17;6.47;;;2.90;;
16775;SDS011;8505;49.456;8.164;2023-07-31T14:44:45;5.80;;;2.70;;
16775;SDS011;8505;49.456;8.164;2023-07-31T14:47:14;5.78;;;2.72;;
16775;SDS011;8505;49.456;8.164;2023-07-31T14:49:41;6.10;;;2.90;;
16775;SDS011;8505;49.456;8.164;2023-07-31T14:52:09;5.15;;;2.80;;
16775;SDS011;8505;49.456;8.164;2023-07-31T14:54:39;5.60;;;2.70;;
16775;SDS011;8505;49.456;8.164;2023-07-31T14:57:07;6.80;;;2.70;;
16775;SDS011;8505;49.456;8.164;2023-07-31T14:59:35;5.85;;;2.70;;
16775;SDS011;8505;49.456;8.164;2023-07-31T15:02:03;6.18;;;3.00;;
16775;SDS011;8505;49.456;8.164;2023-07-31T15:04:31;6.18;;;2.80;;
16775;SDS011;8505;49.456;8.164;2023-07-31T15:06:58;5.78;;;2.70;;
16775;SDS011;8505;49.456;8.164;2023-07-31T15:09:26;6.25;;;2.65;;
16775;SDS011;8505;49.456;8.164;2023-07-31T15:11:55;6.13;;;2.70;;
16775;SDS011;8505;49.456;8.164;2023-07-31T15:14:24;6.00;;;2.67;;